sensor_id;sensor_type;location;lat;lon;timestamp;pressure;altitude;pressure_sealevel;temperature;humidity
71567;BME280;59403;47.456;19.120;2022-08-21T00:01:38;99794.03;;;20.01;86.98
71567;BME280;59403;47.456;19.120;2022-08-21T00:04:06;99790.50;;;20.01;86.84
71567;BME280;59403;47.456;19.120;2022-08-21T00:06:33;99776.12;;;19.95;87.06
71567;BME280;59403;47.456;19.120;2022-08-21T00:09:00;99776.94;;;19.96;87.26
71567;BME280;59403;47.456;19.120;2022-08-21T00:11:29;99779.87;;;19.94;86.93
71567;BME280;59403;47.456;19.120;2022-08-21T00:13:56;99776.34;;;19.94;86.86
71567;BME280;59403;47.456;19.120;2022-08-21T00:16:23;99772.59;;;19.95;86.96
71567;BME280;59403;47.456;19.120;2022-08-21T00:18:50;99772.47;;;19.90;87.33
71567;BME280;59403;47.456;19.120;2022-08-21T00:21:17;99769.56;;;19.91;87.17
71567;BME280;59403;47.456;19.120;2022-08-21T00:23:44;99768.16;;;19.89;87.42
71567;BME280;59403;47.456;19.120;2022-08-21T00:26:11;99771.31;;;19.86;87.29
71567;BME280;59403;47.456;19.120;2022-08-21T00:28:39;99770.50;;;19.85;87.39
71567;BME280;59403;47.456;19.120;2022-08-21T00:31:06;99771.31;;;19.86;87.49
71567;BME280;59403;47.456;19.120;2022-08-21T00:33:33;99771.66;;;19.78;87.77
71567;BME280;59403;47.456;19.120;2022-08-21T00:36:01;99763.34;;;19.79;87.89
71567;BME280;59403;47.456;19.120;2022-08-21T00:38:28;99769.44;;;19.75;87.46
71567;BME280;59403;47.456;19.120;2022-08-21T00:40:58;99764.53;;;19.72;87.52
71567;BME280;59403;47.456;19.120;2022-08-21T00:43:34;99770.94;;;19.71;87.51
71567;BME280;59403;47.456;19.120;2022-08-21T00:46:03;99770.94;;;19.71;87.70
71567;BME280;59403;47.456;19.120;2022-08-21T00:48:31;99764.41;;;19.67;87.78
71567;BME280;59403;47.456;19.120;2022-08-21T00:51:03;99769.19;;;19.65;87.67
71567;BME280;59403;47.456;19.120;2022-08-21T00:53:32;99771.50;;;19.61;87.79
71567;BME280;59403;47.456;19.120;2022-08-21T00:55:59;99773.59;;;19.59;88.20
71567;BME280;59403;47.456;19.120;2022-08-21T00:58:28;99779.56;;;19.61;87.91
71567;BME280;59403;47.456;19.120;2022-08-21T01:04:33;99775.47;;;19.59;87.95
71567;BME280;59403;47.456;19.120;2022-08-21T01:07:00;99774.88;;;19.57;88.06
71567;BME280;59403;47.456;19.120;2022-08-21T01:09:28;99768.69;;;19.56;88.09
71567;BME280;59403;47.456;19.120;2022-08-21T01:11:55;99768.53;;;19.51;88.43
71567;BME280;59403;47.456;19.120;2022-08-21T01:14:22;99763.41;;;19.50;88.15
71567;BME280;59403;47.456;19.120;2022-08-21T01:16:51;99765.84;;;19.51;88.16
71567;BME280;59403;47.456;19.120;2022-08-21T01:19:21;99761.31;;;19.52;88.01
71567;BME280;59403;47.456;19.120;2022-08-21T01:21:49;99764.69;;;19.47;88.43
71567;BME280;59403;47.456;19.120;2022-08-21T01:24:16;99758.97;;;19.44;88.25
71567;BME280;59403;47.456;19.120;2022-08-21T01:26:44;99765.16;;;19.44;88.38
71567;BME280;59403;47.456;19.120;2022-08-21T01:29:15;99758.38;;;19.42;88.28
71567;BME280;59403;47.456;19.120;2022-08-21T01:31:43;99761.75;;;19.37;88.84
71567;BME280;59403;47.456;19.120;2022-08-21T01:34:11;99757.19;;;19.38;88.67
71567;BME280;59403;47.456;19.120;2022-08-21T01:36:38;99758.25;;;19.37;88.77
71567;BME280;59403;47.456;19.120;2022-08-21T01:39:07;99756.22;;;19.32;88.99
71567;BME280;59403;47.456;19.120;2022-08-21T01:41:34;99762.19;;;19.34;88.85
71567;BME280;59403;47.456;19.120;2022-08-21T01:44:01;99756.59;;;19.36;88.66
71567;BME280;59403;47.456;19.120;2022-08-21T01:46:29;99758.47;;;19.35;88.82
71567;BME280;59403;47.456;19.120;2022-08-21T01:48:56;99752.75;;;19.32;88.99
71567;BME280;59403;47.456;19.120;2022-08-21T01:51:22;99754.22;;;19.27;89.01
71567;BME280;59403;47.456;19.120;2022-08-21T01:53:49;99758.75;;;19.27;89.23
71567;BME280;59403;47.456;19.120;2022-08-21T01:56:18;99766.25;;;19.25;89.24
71567;BME280;59403;47.456;19.120;2022-08-21T01:58:46;99755.28;;;19.27;89.53
71567;BME280;59403;47.456;19.120;2022-08-21T02:01:14;99765.41;;;19.24;89.19
71567;BME280;59403;47.456;19.120;2022-08-21T02:03:41;99761.91;;;19.24;89.12
71567;BME280;59403;47.456;19.120;2022-08-21T02:06:12;99766.69;;;19.22;89.53
71567;BME280;59403;47.456;19.120;2022-08-21T02:08:40;99767.63;;;19.27;89.28
71567;BME280;59403;47.456;19.120;2022-08-21T02:11:07;99768.56;;;19.21;89.52
71567;BME280;59403;47.456;19.120;2022-08-21T02:13:35;99762.13;;;19.22;89.34
71567;BME280;59403;47.456;19.120;2022-08-21T02:16:03;99759.31;;;19.17;89.54
71567;BME280;59403;47.456;19.120;2022-08-21T02:18:30;99758.03;;;19.20;89.32
71567;BME280;59403;47.456;19.120;2022-08-21T02:20:57;99756.87;;;19.16;89.82
71567;BME280;59403;47.456;19.120;2022-08-21T02:23:24;99762.47;;;19.14;89.46
71567;BME280;59403;47.456;19.120;2022-08-21T02:25:51;99761.62;;;19.14;89.67
71567;BME280;59403;47.456;19.120;2022-08-21T02:28:18;99756.63;;;19.17;89.66
71567;BME280;59403;47.456;19.120;2022-08-21T02:30:47;99757.09;;;19.14;89.70
71567;BME280;59403;47.456;19.120;2022-08-21T02:33:15;99751.38;;;19.11;90.15
71567;BME280;59403;47.456;19.120;2022-08-21T02:35:44;99756.50;;;19.12;89.65
71567;BME280;59403;47.456;19.120;2022-08-21T02:38:14;99745.41;;;19.09;89.90
71567;BME280;59403;47.456;19.120;2022-08-21T02:40:43;99743.19;;;19.06;89.85
71567;BME280;59403;47.456;19.120;2022-08-21T02:43:11;99739.44;;;19.07;89.97
71567;BME280;59403;47.456;19.120;2022-08-21T02:45:39;99747.72;;;19.05;90.07
71567;BME280;59403;47.456;19.120;2022-08-21T02:48:11;99746.66;;;19.06;90.06
71567;BME280;59403;47.456;19.120;2022-08-21T02:50:42;99745.62;;;19.07;89.77
71567;BME280;59403;47.456;19.120;2022-08-21T02:53:11;99752.25;;;19.05;89.93
71567;BME280;59403;47.456;19.120;2022-08-21T02:55:42;99750.41;;;19.05;89.97
71567;BME280;59403;47.456;19.120;2022-08-21T02:58:09;99744.81;;;19.07;90.20
71567;BME280;59403;47.456;19.120;2022-08-21T03:00:38;99747.13;;;19.03;90.02
71567;BME280;59403;47.456;19.120;2022-08-21T03:03:07;99745.50;;;19.02;90.15
71567;BME280;59403;47.456;19.120;2022-08-21T03:05:36;99748.84;;;18.98;90.77
71567;BME280;59403;47.456;19.120;2022-08-21T03:08:06;99751.88;;;19.01;90.40
71567;BME280;59403;47.456;19.120;2022-08-21T03:10:34;99748.84;;;18.98;90.43
71567;BME280;59403;47.456;19.120;2022-08-21T03:13:02;99743.25;;;18.99;90.26
71567;BME280;59403;47.456;19.120;2022-08-21T03:15:29;99750.03;;;19.02;90.06
71567;BME280;59403;47.456;19.120;2022-08-21T03:17:57;99752.34;;;18.98;90.81
71567;BME280;59403;47.456;19.120;2022-08-21T03:20:28;99751.97;;;18.95;90.68
71567;BME280;59403;47.456;19.120;2022-08-21T03:22:55;99743.72;;;18.96;90.55
71567;BME280;59403;47.456;19.120;2022-08-21T03:25:24;99748.47;;;18.94;90.56
71567;BME280;59403;47.456;19.120;2022-08-21T03:27:51;99747.66;;;18.94;90.76
71567;BME280;59403;47.456;19.120;2022-08-21T03:30:20;99748.47;;;18.94;90.75
71567;BME280;59403;47.456;19.120;2022-08-21T03:32:48;99745.78;;;18.94;90.72
71567;BME280;59403;47.456;19.120;2022-08-21T03:35:17;99750.94;;;18.96;90.62
71567;BME280;59403;47.456;19.120;2022-08-21T03:37:46;99748.25;;;18.96;90.71
71567;BME280;59403;47.456;19.120;2022-08-21T03:40:17;99749.06;;;18.96;90.58
71567;BME280;59403;47.456;19.120;2022-08-21T03:42:44;99750.94;;;18.96;90.60
71567;BME280;59403;47.456;19.120;2022-08-21T03:45:13;99746.62;;;18.95;90.76
71567;BME280;59403;47.456;19.120;2022-08-21T03:47:52;99752.81;;;18.95;91.14
71567;BME280;59403;47.456;19.120;2022-08-21T03:50:21;99751.38;;;18.93;91.01
71567;BME280;59403;47.456;19.120;2022-08-21T03:52:50;99749.75;;;18.92;90.82
71567;BME280;59403;47.456;19.120;2022-08-21T03:55:17;99758.38;;;18.94;91.12
71567;BME280;59403;47.456;19.120;2022-08-21T03:57:44;99761.28;;;18.92;90.91
71567;BME280;59403;47.456;19.120;2022-08-21T04:00:12;99755.13;;;18.92;90.90
71567;BME280;59403;47.456;19.120;2022-08-21T04:02:40;99757.13;;;18.96;90.69
71567;BME280;59403;47.456;19.120;2022-08-21T04:05:08;99755.69;;;18.94;90.93
71567;BME280;59403;47.456;19.120;2022-08-21T04:07:35;99758.59;;;18.92;91.01
71567;BME280;59403;47.456;19.120;2022-08-21T04:10:06;99760.88;;;18.95;91.00
71567;BME280;59403;47.456;19.120;2022-08-21T04:12:33;99763.53;;;18.95;90.95
71567;BME280;59403;47.456;19.120;2022-08-21T04:15:00;99771.59;;;18.95;90.74
71567;BME280;59403;47.456;19.120;2022-08-21T04:17:27;99774.66;;;18.99;90.72
71567;BME280;59403;47.456;19.120;2022-08-21T04:19:54;99775.69;;;18.98;90.95
71567;BME280;59403;47.456;19.120;2022-08-21T04:22:21;99770.06;;;18.99;90.98
71567;BME280;59403;47.456;19.120;2022-08-21T04:24:48;99779.78;;;19.00;90.74
71567;BME280;59403;47.456;19.120;2022-08-21T04:27:17;99772.75;;;18.99;90.77
71567;BME280;59403;47.456;19.120;2022-08-21T04:29:44;99781.19;;;19.03;90.69
71567;BME280;59403;47.456;19.120;2022-08-21T04:32:11;99783.22;;;19.07;90.58
71567;BME280;59403;47.456;19.120;2022-08-21T04:34:38;99782.38;;;19.07;90.69
71567;BME280;59403;47.456;19.120;2022-08-21T04:37:05;99781.31;;;19.08;90.79
71567;BME280;59403;47.456;19.120;2022-08-21T04:39:31;99777.84;;;19.07;90.55
71567;BME280;59403;47.456;19.120;2022-08-21T04:41:58;99772.84;;;19.11;90.34
71567;BME280;59403;47.456;19.120;2022-08-21T04:44:26;99780.06;;;19.10;90.39
71567;BME280;59403;47.456;19.120;2022-08-21T04:46:53;99783.12;;;19.14;90.25
71567;BME280;59403;47.456;19.120;2022-08-21T04:49:20;99785.56;;;19.15;90.15
71567;BME280;59403;47.456;19.120;2022-08-21T04:51:47;99778.94;;;19.18;90.33
71567;BME280;59403;47.456;19.120;2022-08-21T04:54:18;99794.00;;;19.19;90.34
71567;BME280;59403;47.456;19.120;2022-08-21T04:56:48;99794.34;;;19.22;90.09
71567;BME280;59403;47.456;19.120;2022-08-21T04:59:18;99795.53;;;19.27;89.92
71567;BME280;59403;47.456;19.120;2022-08-21T05:01:47;99792.03;;;19.26;89.97
71567;BME280;59403;47.456;19.120;2022-08-21T05:04:18;99801.31;;;19.30;89.70
71567;BME280;59403;47.456;19.120;2022-08-21T05:06:48;99799.03;;;19.27;90.12
71567;BME280;59403;47.456;19.120;2022-08-21T05:09:19;99797.56;;;19.31;89.90
71567;BME280;59403;47.456;19.120;2022-08-21T05:11:47;99798.16;;;19.33;89.72
71567;BME280;59403;47.456;19.120;2022-08-21T05:14:14;99794.41;;;19.34;89.28
71567;BME280;59403;47.456;19.120;2022-08-21T05:16:41;99794.19;;;19.36;89.42
71567;BME280;59403;47.456;19.120;2022-08-21T05:19:10;99794.19;;;19.36;88.90
71567;BME280;59403;47.456;19.120;2022-08-21T05:21:40;99786.50;;;19.39;89.05
71567;BME280;59403;47.456;19.120;2022-08-21T05:24:08;99784.41;;;19.41;88.77
71567;BME280;59403;47.456;19.120;2022-08-21T05:26:35;99797.59;;;19.43;88.86
71567;BME280;59403;47.456;19.120;2022-08-21T05:29:02;99793.19;;;19.48;88.94
71567;BME280;59403;47.456;19.120;2022-08-21T05:31:29;99799.97;;;19.51;88.72
71567;BME280;59403;47.456;19.120;2022-08-21T05:33:57;99789.25;;;19.51;88.42
71567;BME280;59403;47.456;19.120;2022-08-21T05:36:25;99789.59;;;19.54;88.15
71567;BME280;59403;47.456;19.120;2022-08-21T05:38:52;99789.38;;;19.56;87.83
71567;BME280;59403;47.456;19.120;2022-08-21T05:41:19;99794.87;;;19.61;87.73
71567;BME280;59403;47.456;19.120;2022-08-21T05:43:46;99798.62;;;19.60;87.86
71567;BME280;59403;47.456;19.120;2022-08-21T05:46:13;99787.16;;;19.64;87.56
71567;BME280;59403;47.456;19.120;2022-08-21T05:48:40;99794.53;;;19.69;87.38
71567;BME280;59403;47.456;19.120;2022-08-21T05:51:08;99788.59;;;19.67;87.49
71567;BME280;59403;47.456;19.120;2022-08-21T05:53:37;99788.34;;;19.68;87.05
71567;BME280;59403;47.456;19.120;2022-08-21T05:56:05;99796.78;;;19.72;87.01
71567;BME280;59403;47.456;19.120;2022-08-21T05:58:33;99794.87;;;19.72;87.01
71567;BME280;59403;47.456;19.120;2022-08-21T06:01:01;99796.91;;;19.77;87.06
71567;BME280;59403;47.456;19.120;2022-08-21T06:03:33;99800.03;;;19.74;86.98
71567;BME280;59403;47.456;19.120;2022-08-21T06:06:00;99804.97;;;19.77;87.00
71567;BME280;59403;47.456;19.120;2022-08-21T06:08:30;99796.19;;;19.70;86.95
71567;BME280;59403;47.456;19.120;2022-08-21T06:10:59;99802.63;;;19.80;86.93
71567;BME280;59403;47.456;19.120;2022-08-21T06:13:27;99798.66;;;19.83;87.30
71567;BME280;59403;47.456;19.120;2022-08-21T06:16:02;99805.44;;;19.85;87.22
71567;BME280;59403;47.456;19.120;2022-08-21T06:18:29;99807.06;;;19.86;87.19
71567;BME280;59403;47.456;19.120;2022-08-21T06:20:56;99808.25;;;19.79;86.43
71567;BME280;59403;47.456;19.120;2022-08-21T06:23:23;99811.06;;;19.84;86.01
71567;BME280;59403;47.456;19.120;2022-08-21T06:25:50;99812.22;;;19.88;86.30
71567;BME280;59403;47.456;19.120;2022-08-21T06:28:19;99813.50;;;19.97;85.79
71567;BME280;59403;47.456;19.120;2022-08-21T06:30:45;99814.47;;;20.02;85.74
71567;BME280;59403;47.456;19.120;2022-08-21T06:33:12;99820.91;;;20.01;85.82
71567;BME280;59403;47.456;19.120;2022-08-21T06:35:40;99810.25;;;20.06;84.99
71567;BME280;59403;47.456;19.120;2022-08-21T06:38:07;99819.25;;;20.00;84.60
71567;BME280;59403;47.456;19.120;2022-08-21T06:40:34;99823.94;;;20.05;85.16
71567;BME280;59403;47.456;19.120;2022-08-21T06:43:06;99826.88;;;20.15;84.70
71567;BME280;59403;47.456;19.120;2022-08-21T06:45:35;99822.75;;;20.12;84.00
71567;BME280;59403;47.456;19.120;2022-08-21T06:48:02;99832.03;;;20.28;83.92
71567;BME280;59403;47.456;19.120;2022-08-21T06:50:30;99824.44;;;20.25;84.50
71567;BME280;59403;47.456;19.120;2022-08-21T06:53:01;99827.91;;;20.14;83.51
71567;BME280;59403;47.456;19.120;2022-08-21T06:55:28;99820.06;;;20.12;83.87
71567;BME280;59403;47.456;19.120;2022-08-21T06:58:00;99824.22;;;20.26;83.81
71567;BME280;59403;47.456;19.120;2022-08-21T07:00:28;99812.88;;;20.36;83.58
71567;BME280;59403;47.456;19.120;2022-08-21T07:02:57;99813.44;;;20.38;83.08
71567;BME280;59403;47.456;19.120;2022-08-21T07:05:26;99819.19;;;20.53;82.89
71567;BME280;59403;47.456;19.120;2022-08-21T07:07:53;99819.06;;;20.60;82.84
71567;BME280;59403;47.456;19.120;2022-08-21T07:10:20;99817.41;;;20.70;82.05
71567;BME280;59403;47.456;19.120;2022-08-21T07:12:47;99813.88;;;20.81;81.61
71567;BME280;59403;47.456;19.120;2022-08-21T07:15:14;99817.37;;;20.82;81.44
71567;BME280;59403;47.456;19.120;2022-08-21T07:17:41;99817.72;;;20.85;81.20
71567;BME280;59403;47.456;19.120;2022-08-21T07:20:10;99823.22;;;21.02;80.32
71567;BME280;59403;47.456;19.120;2022-08-21T07:22:40;99814.81;;;20.98;80.38
71567;BME280;59403;47.456;19.120;2022-08-21T07:25:08;99819.66;;;21.13;80.38
71567;BME280;59403;47.456;19.120;2022-08-21T07:27:35;99821.69;;;21.06;79.75
71567;BME280;59403;47.456;19.120;2022-08-21T07:30:03;99822.41;;;21.01;80.40
71567;BME280;59403;47.456;19.120;2022-08-21T07:32:30;99813.91;;;21.21;79.78
71567;BME280;59403;47.456;19.120;2022-08-21T07:34:57;99811.56;;;21.24;79.25
71567;BME280;59403;47.456;19.120;2022-08-21T07:37:25;99821.94;;;21.32;79.21
71567;BME280;59403;47.456;19.120;2022-08-21T07:39:52;99816.06;;;21.35;78.51
71567;BME280;59403;47.456;19.120;2022-08-21T07:42:19;99809.25;;;21.44;79.36
71567;BME280;59403;47.456;19.120;2022-08-21T07:44:46;99809.81;;;21.47;79.68
71567;BME280;59403;47.456;19.120;2022-08-21T07:47:13;99804.09;;;21.43;78.90
71567;BME280;59403;47.456;19.120;2022-08-21T07:49:40;99811.00;;;21.79;78.07
71567;BME280;59403;47.456;19.120;2022-08-21T07:52:07;99807.06;;;21.86;77.23
71567;BME280;59403;47.456;19.120;2022-08-21T07:54:35;99806.75;;;21.99;77.66
71567;BME280;59403;47.456;19.120;2022-08-21T07:57:03;99810.41;;;21.93;77.33
71567;BME280;59403;47.456;19.120;2022-08-21T07:59:30;99804.78;;;21.78;76.50
71567;BME280;59403;47.456;19.120;2022-08-21T08:01:57;99800.31;;;21.72;77.71
71567;BME280;59403;47.456;19.120;2022-08-21T08:04:24;99798.00;;;21.92;76.94
71567;BME280;59403;47.456;19.120;2022-08-21T08:06:51;99803.47;;;22.14;76.80
71567;BME280;59403;47.456;19.120;2022-08-21T08:09:18;99798.06;;;22.30;76.31
71567;BME280;59403;47.456;19.120;2022-08-21T08:11:46;99793.44;;;22.47;75.72
71567;BME280;59403;47.456;19.120;2022-08-21T08:14:16;99783.31;;;22.55;74.97
71567;BME280;59403;47.456;19.120;2022-08-21T08:16:43;99786.34;;;22.80;74.87
71567;BME280;59403;47.456;19.120;2022-08-21T08:19:15;99781.97;;;22.74;74.92
71567;BME280;59403;47.456;19.120;2022-08-21T08:21:42;99767.31;;;22.70;74.03
71567;BME280;59403;47.456;19.120;2022-08-21T08:24:09;99772.66;;;22.65;74.66
71567;BME280;59403;47.456;19.120;2022-08-21T08:26:36;99773.78;;;22.90;74.29
71567;BME280;59403;47.456;19.120;2022-08-21T08:29:04;99775.38;;;22.86;74.17
71567;BME280;59403;47.456;19.120;2022-08-21T08:31:32;99773.72;;;22.85;73.74
71567;BME280;59403;47.456;19.120;2022-08-21T08:33:59;99775.81;;;23.00;73.71
71567;BME280;59403;47.456;19.120;2022-08-21T08:36:32;99776.06;;;22.98;73.53
71567;BME280;59403;47.456;19.120;2022-08-21T08:39:00;99773.03;;;22.95;73.24
71567;BME280;59403;47.456;19.120;2022-08-21T08:41:27;99766.50;;;22.91;73.49
71567;BME280;59403;47.456;19.120;2022-08-21T08:43:58;99765.06;;;23.05;73.82
71567;BME280;59403;47.456;19.120;2022-08-21T08:46:32;99764.94;;;22.95;73.48
71567;BME280;59403;47.456;19.120;2022-08-21T08:49:06;99764.16;;;22.99;73.45
71567;BME280;59403;47.456;19.120;2022-08-21T08:51:40;99767.38;;;22.96;73.98
71567;BME280;59403;47.456;19.120;2022-08-21T08:54:12;99761.72;;;22.76;73.25
71567;BME280;59403;47.456;19.120;2022-08-21T08:56:41;99771.44;;;22.99;73.13
71567;BME280;59403;47.456;19.120;2022-08-21T08:59:15;99767.44;;;23.23;73.61
71567;BME280;59403;47.456;19.120;2022-08-21T09:01:46;99782.50;;;23.19;72.76
71567;BME280;59403;47.456;19.120;2022-08-21T09:04:13;99775.03;;;23.04;72.95
71567;BME280;59403;47.456;19.120;2022-08-21T09:06:54;99778.78;;;23.25;72.08
71567;BME280;59403;47.456;19.120;2022-08-21T09:09:33;99783.62;;;23.76;71.06
71567;BME280;59403;47.456;19.120;2022-08-21T09:12:04;99777.50;;;24.17;68.91
71567;BME280;59403;47.456;19.120;2022-08-21T09:14:52;99775.81;;;24.06;68.98
71567;BME280;59403;47.456;19.120;2022-08-21T09:17:33;99766.03;;;24.42;69.01
71567;BME280;59403;47.456;19.120;2022-08-21T09:20:17;99773.19;;;24.68;67.70
71567;BME280;59403;47.456;19.120;2022-08-21T09:22:57;99766.31;;;25.02;67.58
71567;BME280;59403;47.456;19.120;2022-08-21T09:25:28;99776.91;;;25.04;66.51
71567;BME280;59403;47.456;19.120;2022-08-21T09:27:58;99768.81;;;24.57;67.61
71567;BME280;59403;47.456;19.120;2022-08-21T09:30:27;99777.06;;;23.99;67.82
71567;BME280;59403;47.456;19.120;2022-08-21T09:32:57;99767.84;;;24.31;68.86
71567;BME280;59403;47.456;19.120;2022-08-21T09:35:25;99765.13;;;24.73;67.64
71567;BME280;59403;47.456;19.120;2022-08-21T09:37:55;99772.28;;;24.99;66.52
71567;BME280;59403;47.456;19.120;2022-08-21T09:40:30;99764.75;;;24.54;67.23
71567;BME280;59403;47.456;19.120;2022-08-21T09:43:00;99767.69;;;24.48;67.69
71567;BME280;59403;47.456;19.120;2022-08-21T09:45:27;99764.16;;;24.47;66.94
71567;BME280;59403;47.456;19.120;2022-08-21T09:47:54;99767.47;;;24.59;67.38
71567;BME280;59403;47.456;19.120;2022-08-21T09:50:25;99764.34;;;24.78;66.62
71567;BME280;59403;47.456;19.120;2022-08-21T09:52:54;99759.53;;;24.90;66.74
71567;BME280;59403;47.456;19.120;2022-08-21T09:55:31;99762.03;;;25.16;65.17
71567;BME280;59403;47.456;19.120;2022-08-21T09:58:16;99756.31;;;25.13;63.90
71567;BME280;59403;47.456;19.120;2022-08-21T10:00:57;99756.56;;;24.96;65.44
71567;BME280;59403;47.456;19.120;2022-08-21T10:03:25;99756.13;;;24.67;65.15
71567;BME280;59403;47.456;19.120;2022-08-21T10:05:57;99756.81;;;24.90;66.00
71567;BME280;59403;47.456;19.120;2022-08-21T10:08:26;99756.81;;;24.90;66.75
71567;BME280;59403;47.456;19.120;2022-08-21T10:10:57;99755.00;;;25.25;65.43
71567;BME280;59403;47.456;19.120;2022-08-21T10:13:40;99752.03;;;25.22;66.32
71567;BME280;59403;47.456;19.120;2022-08-21T10:16:24;99764.97;;;24.95;64.94
71567;BME280;59403;47.456;19.120;2022-08-21T10:19:05;99760.69;;;25.14;65.23
71567;BME280;59403;47.456;19.120;2022-08-21T10:21:40;99765.50;;;24.97;66.40
71567;BME280;59403;47.456;19.120;2022-08-21T10:24:19;99760.56;;;24.84;66.59
71567;BME280;59403;47.456;19.120;2022-08-21T10:26:55;99766.03;;;24.94;66.86
71567;BME280;59403;47.456;19.120;2022-08-21T10:29:39;99761.38;;;24.79;67.53
71567;BME280;59403;47.456;19.120;2022-08-21T10:32:20;99754.38;;;24.93;66.71
71567;BME280;59403;47.456;19.120;2022-08-21T10:34:55;99772.31;;;24.52;67.69
71567;BME280;59403;47.456;19.120;2022-08-21T10:37:34;99768.44;;;24.38;67.92
71567;BME280;59403;47.456;19.120;2022-08-21T10:40:11;99765.03;;;24.11;67.91
71567;BME280;59403;47.456;19.120;2022-08-21T10:42:49;99762.91;;;24.18;67.75
71567;BME280;59403;47.456;19.120;2022-08-21T10:45:29;99762.13;;;24.23;69.66
71567;BME280;59403;47.456;19.120;2022-08-21T10:48:03;99751.78;;;24.15;69.07
71567;BME280;59403;47.456;19.120;2022-08-21T10:50:42;99756.44;;;24.24;69.28
71567;BME280;59403;47.456;19.120;2022-08-21T10:53:20;99753.75;;;24.29;68.79
71567;BME280;59403;47.456;19.120;2022-08-21T10:55:54;99760.81;;;24.30;68.79
71567;BME280;59403;47.456;19.120;2022-08-21T10:58:26;99759.94;;;24.20;68.15
71567;BME280;59403;47.456;19.120;2022-08-21T11:00:58;99757.78;;;24.22;69.03
71567;BME280;59403;47.456;19.120;2022-08-21T11:03:33;99756.16;;;24.21;69.20
71567;BME280;59403;47.456;19.120;2022-08-21T11:06:05;99750.03;;;24.40;68.85
71567;BME280;59403;47.456;19.120;2022-08-21T11:08:39;99749.19;;;24.35;68.86
71567;BME280;59403;47.456;19.120;2022-08-21T11:11:11;99751.44;;;24.48;68.71
71567;BME280;59403;47.456;19.120;2022-08-21T11:13:42;99751.44;;;24.48;68.77
71567;BME280;59403;47.456;19.120;2022-08-21T11:16:17;99746.53;;;24.45;68.54
71567;BME280;59403;47.456;19.120;2022-08-21T11:18:50;99749.78;;;24.42;69.01
71567;BME280;59403;47.456;19.120;2022-08-21T11:21:29;99745.94;;;24.33;69.34
71567;BME280;59403;47.456;19.120;2022-08-21T11:24:04;99736.47;;;24.30;69.32
71567;BME280;59403;47.456;19.120;2022-08-21T11:26:43;99745.94;;;24.33;69.38
71567;BME280;59403;47.456;19.120;2022-08-21T11:29:15;99725.31;;;24.22;69.78
71567;BME280;59403;47.456;19.120;2022-08-21T11:31:55;99746.38;;;24.15;70.81
71567;BME280;59403;47.456;19.120;2022-08-21T11:34:39;99745.09;;;23.91;71.75
71567;BME280;59403;47.456;19.120;2022-08-21T11:37:17;99751.50;;;23.80;72.04
71567;BME280;59403;47.456;19.120;2022-08-21T11:39:53;99743.78;;;23.67;73.75
71567;BME280;59403;47.456;19.120;2022-08-21T11:42:30;99739.38;;;23.55;74.96
71567;BME280;59403;47.456;19.120;2022-08-21T11:45:14;99739.03;;;23.47;75.06
71567;BME280;59403;47.456;19.120;2022-08-21T11:47:54;99732.78;;;23.41;75.00
71567;BME280;59403;47.456;19.120;2022-08-21T11:50:27;99737.31;;;23.36;73.92
71567;BME280;59403;47.456;19.120;2022-08-21T11:52:57;99713.75;;;23.31;73.31
71567;BME280;59403;47.456;19.120;2022-08-21T11:55:32;99729.31;;;23.51;72.68
71567;BME280;59403;47.456;19.120;2022-08-21T11:58:07;99727.75;;;23.55;73.30
71567;BME280;59403;47.456;19.120;2022-08-21T12:00:43;99729.47;;;23.66;73.07
71567;BME280;59403;47.456;19.120;2022-08-21T12:03:13;99728.72;;;23.76;72.61
71567;BME280;59403;47.456;19.120;2022-08-21T12:05:43;99733.66;;;23.79;72.65
71567;BME280;59403;47.456;19.120;2022-08-21T12:08:13;99729.66;;;23.91;72.09
71567;BME280;59403;47.456;19.120;2022-08-21T12:10:47;99728.03;;;23.90;72.01
71567;BME280;59403;47.456;19.120;2022-08-21T12:13:26;99715.44;;;24.01;71.67
71567;BME280;59403;47.456;19.120;2022-08-21T12:16:05;99723.31;;;24.07;71.62
71567;BME280;59403;47.456;19.120;2022-08-21T12:18:32;99721.91;;;24.00;71.46
71567;BME280;59403;47.456;19.120;2022-08-21T12:21:15;99715.75;;;24.09;71.08
71567;BME280;59403;47.456;19.120;2022-08-21T12:23:45;99716.59;;;24.10;71.04
71567;BME280;59403;47.456;19.120;2022-08-21T12:26:24;99711.47;;;24.13;70.82
71567;BME280;59403;47.456;19.120;2022-08-21T12:29:13;99710.34;;;24.09;70.16
71567;BME280;59403;47.456;19.120;2022-08-21T12:31:54;99709.66;;;23.92;70.21
71567;BME280;59403;47.456;19.120;2022-08-21T12:34:24;99708.41;;;24.05;70.51
71567;BME280;59403;47.456;19.120;2022-08-21T12:36:57;99711.72;;;23.75;71.16
71567;BME280;59403;47.456;19.120;2022-08-21T12:39:27;99702.25;;;23.78;71.50
71567;BME280;59403;47.456;19.120;2022-08-21T12:42:00;99704.09;;;23.72;72.53
71567;BME280;59403;47.456;19.120;2022-08-21T12:44:37;99705.56;;;23.53;74.08
71567;BME280;59403;47.456;19.120;2022-08-21T12:47:15;99707.31;;;23.37;75.86
71567;BME280;59403;47.456;19.120;2022-08-21T12:49:51;99701.19;;;23.20;77.09
71567;BME280;59403;47.456;19.120;2022-08-21T12:52:22;99697.63;;;23.15;78.69
71567;BME280;59403;47.456;19.120;2022-08-21T12:54:49;99706.25;;;22.90;80.36
71567;BME280;59403;47.456;19.120;2022-08-21T12:57:23;99710.19;;;22.56;81.90
71567;BME280;59403;47.456;19.120;2022-08-21T12:59:55;99704.75;;;22.34;83.13
71567;BME280;59403;47.456;19.120;2022-08-21T13:02:24;99701.72;;;21.93;82.89
71567;BME280;59403;47.456;19.120;2022-08-21T13:04:53;99709.16;;;21.53;86.11
71567;BME280;59403;47.456;19.120;2022-08-21T13:07:27;99704.50;;;21.31;86.55
71567;BME280;59403;47.456;19.120;2022-08-21T13:09:57;99699.03;;;21.43;87.05